createdAt,value
2023-04-27T00:01:52.977Z,4.00
2023-04-27T00:04:20.680Z,3.83
2023-04-27T00:06:48.785Z,4.05
2023-04-27T00:09:16.213Z,4.95
2023-04-27T00:11:44.433Z,4.90
2023-04-27T00:14:13.518Z,5.90
2023-04-27T00:16:41.376Z,6.22
2023-04-27T00:19:08.841Z,6.00
2023-04-27T00:21:36.515Z,6.38
2023-04-27T00:24:04.269Z,6.05
2023-04-27T00:26:32.066Z,5.95
2023-04-27T00:28:59.552Z,5.82
2023-04-27T00:31:28.861Z,5.80
2023-04-27T00:33:56.262Z,5.13
2023-04-27T00:36:23.990Z,5.45
2023-04-27T00:38:51.433Z,5.63
2023-04-27T00:41:19.433Z,5.00
2023-04-27T00:43:46.912Z,5.07
2023-04-27T00:46:15.599Z,5.50
2023-04-27T00:48:45.047Z,5.45
2023-04-27T00:51:13.230Z,5.60
2023-04-27T00:53:41.542Z,5.22
2023-04-27T00:56:09.349Z,5.50
2023-04-27T00:58:36.579Z,5.18
2023-04-27T01:01:04.815Z,4.93
2023-04-27T01:03:32.886Z,4.90
2023-04-27T01:06:02.256Z,5.07
2023-04-27T01:08:29.651Z,5.35
2023-04-27T01:10:57.773Z,4.82
2023-04-27T01:13:25.293Z,4.72
2023-04-27T01:15:53.068Z,4.53
2023-04-27T01:18:20.461Z,5.40
2023-04-27T01:20:48.148Z,4.40
2023-04-27T01:23:17.495Z,5.00
2023-04-27T01:25:45.500Z,4.32
2023-04-27T01:28:12.935Z,4.55
2023-04-27T01:30:40.656Z,4.70
2023-04-27T01:33:08.049Z,4.65
2023-04-27T01:35:35.717Z,4.93
2023-04-27T01:38:03.193Z,5.28
2023-04-27T01:40:32.203Z,4.82
2023-04-27T01:42:59.630Z,5.05
2023-04-27T01:45:27.385Z,5.10
2023-04-27T01:47:54.756Z,5.40
2023-04-27T01:50:22.705Z,4.50
2023-04-27T01:52:50.125Z,5.03
2023-04-27T01:55:17.949Z,4.30
2023-04-27T01:57:46.710Z,4.07
2023-04-27T02:00:14.883Z,4.15
2023-04-27T02:02:42.399Z,4.53
2023-04-27T02:05:10.196Z,4.75
2023-04-27T02:07:37.680Z,4.25
2023-04-27T02:10:07.021Z,4.45
2023-04-27T02:12:34.306Z,4.25
2023-04-27T02:15:03.822Z,4.63
2023-04-27T02:17:31.055Z,4.20
2023-04-27T02:19:58.704Z,4.00
2023-04-27T02:22:26.058Z,4.15
2023-04-27T02:24:54.139Z,4.13
2023-04-27T02:27:21.460Z,4.25
2023-04-27T02:29:49.591Z,4.45
2023-04-27T02:32:18.794Z,4.68
2023-04-27T02:34:46.462Z,4.32
2023-04-27T02:37:13.746Z,4.93
2023-04-27T02:39:41.441Z,4.75
2023-04-27T02:42:08.811Z,4.95
2023-04-27T02:44:36.584Z,4.88
2023-04-27T02:47:04.006Z,4.90
2023-04-27T02:49:33.180Z,3.92
2023-04-27T02:52:00.583Z,4.50
2023-04-27T02:54:28.578Z,4.47
2023-04-27T02:56:55.866Z,4.15
2023-04-27T02:59:23.703Z,3.35
2023-04-27T03:01:51.262Z,4.53
2023-04-27T03:04:19.224Z,4.18
2023-04-27T03:06:48.133Z,4.43
2023-04-27T03:09:16.111Z,3.53
2023-04-27T03:11:44.058Z,3.85
2023-04-27T03:14:11.812Z,4.03
2023-04-27T03:16:39.394Z,3.95
2023-04-27T03:19:07.323Z,3.42
2023-04-27T03:21:34.691Z,3.50
2023-04-27T03:24:04.618Z,3.47
2023-04-27T03:26:32.137Z,4.10
2023-04-27T03:29:00.314Z,4.00
2023-04-27T03:31:27.761Z,3.80
2023-04-27T03:33:55.557Z,3.60
2023-04-27T03:36:22.980Z,3.47
2023-04-27T03:38:50.694Z,4.13
2023-04-27T03:41:19.274Z,3.65
2023-04-27T03:43:47.154Z,4.05
2023-04-27T03:46:14.699Z,4.35
2023-04-27T03:48:42.328Z,4.13
2023-04-27T03:51:09.707Z,3.50
2023-04-27T03:53:37.544Z,3.67
2023-04-27T03:56:05.664Z,4.03
2023-04-27T03:58:34.985Z,4.05
2023-04-27T04:01:02.288Z,3.60
2023-04-27T04:03:30.230Z,4.00
2023-04-27T04:05:57.785Z,4.00
2023-04-27T04:08:25.505Z,3.97
2023-04-27T04:10:52.734Z,4.22
2023-04-27T04:13:20.675Z,3.58
2023-04-27T04:15:49.608Z,3.53
2023-04-27T04:18:17.496Z,3.97
2023-04-27T04:20:44.862Z,3.97
2023-04-27T04:23:12.846Z,4.55
2023-04-27T04:25:40.102Z,4.45
2023-04-27T04:28:07.916Z,4.20
2023-04-27T04:30:35.187Z,4.05
2023-04-27T04:33:04.338Z,3.97
2023-04-27T04:35:31.705Z,4.00
2023-04-27T04:37:59.458Z,4.18
2023-04-27T04:40:27.360Z,3.65
2023-04-27T04:42:55.106Z,3.90
2023-04-27T04:45:22.422Z,3.90
2023-04-27T04:47:50.274Z,3.65
2023-04-27T04:50:19.270Z,4.00
2023-04-27T04:52:47.338Z,4.60
2023-04-27T04:55:15.452Z,3.83
2023-04-27T04:57:43.124Z,4.28
2023-04-27T05:00:11.515Z,4.22
2023-04-27T05:02:39.706Z,4.80
2023-04-27T05:05:08.069Z,4.72
2023-04-27T05:07:37.255Z,4.80
2023-04-27T05:10:05.333Z,5.05
2023-04-27T05:12:32.964Z,5.45
2023-04-27T05:15:00.354Z,5.38
2023-04-27T05:17:28.524Z,4.88
2023-04-27T05:19:55.937Z,4.28
2023-04-27T05:22:23.698Z,4.95
2023-04-27T05:24:52.465Z,4.53
2023-04-27T05:27:20.257Z,4.47
2023-04-27T05:29:47.571Z,4.82
2023-04-27T05:32:15.375Z,4.80
2023-04-27T05:34:42.658Z,4.72
2023-04-27T05:37:10.489Z,4.63
2023-04-27T05:39:39.200Z,5.68
2023-04-27T05:42:08.456Z,4.95
2023-04-27T05:44:35.945Z,4.80
2023-04-27T05:47:03.703Z,4.20
2023-04-27T05:49:31.177Z,4.60
2023-04-27T05:51:58.981Z,4.78
2023-04-27T05:54:26.301Z,5.07
2023-04-27T05:56:54.142Z,5.30
2023-04-27T05:59:23.079Z,4.72
2023-04-27T06:01:50.932Z,4.47
2023-04-27T06:04:18.589Z,4.18
2023-04-27T06:06:46.554Z,4.30
2023-04-27T06:09:14.131Z,7.22
2023-04-27T06:11:42.006Z,3.17
2023-04-27T06:14:09.374Z,3.70
2023-04-27T06:16:38.613Z,3.05
2023-04-27T06:19:07.726Z,3.03
2023-04-27T06:21:36.052Z,3.20
2023-04-27T06:24:03.525Z,2.63
2023-04-27T06:26:31.189Z,2.97
2023-04-27T06:28:58.692Z,2.83
2023-04-27T06:31:26.866Z,2.55
2023-04-27T06:33:55.826Z,2.67
2023-04-27T06:36:26.290Z,2.55
2023-04-27T06:38:53.810Z,2.65
2023-04-27T06:41:21.629Z,2.60
2023-04-27T06:43:49.027Z,2.50
2023-04-27T06:46:16.813Z,2.40
2023-04-27T06:48:44.262Z,2.40
2023-04-27T06:51:13.632Z,2.33
2023-04-27T06:53:41.242Z,2.97
2023-04-27T06:56:11.909Z,2.92
2023-04-27T06:58:39.343Z,2.30
2023-04-27T07:01:07.042Z,2.53
2023-04-27T07:03:35.570Z,2.70
2023-04-27T07:06:03.736Z,2.78
2023-04-27T07:08:32.619Z,2.70
2023-04-27T07:11:00.512Z,2.58
2023-04-27T07:13:27.778Z,2.42
2023-04-27T07:15:56.211Z,2.30
2023-04-27T07:18:23.607Z,2.83
2023-04-27T07:20:51.521Z,2.10
2023-04-27T07:23:18.786Z,2.50
2023-04-27T07:25:48.050Z,2.40
2023-04-27T07:28:15.518Z,2.90
2023-04-27T07:30:43.379Z,2.92
2023-04-27T07:33:10.889Z,3.53
2023-04-27T07:35:39.135Z,3.47
2023-04-27T07:38:06.591Z,2.85
2023-04-27T07:40:34.450Z,2.58
2023-04-27T07:43:03.261Z,2.65
2023-04-27T07:45:31.007Z,2.67
2023-04-27T07:47:58.917Z,2.60
2023-04-27T07:50:27.023Z,2.42
2023-04-27T07:52:54.407Z,2.33
2023-04-27T07:55:22.549Z,1.90
2023-04-27T07:57:49.819Z,2.55
2023-04-27T08:00:19.796Z,2.75
2023-04-27T08:02:47.382Z,2.33
2023-04-27T08:05:16.021Z,2.45
2023-04-27T08:07:44.838Z,2.50
2023-04-27T08:10:13.232Z,2.25
2023-04-27T08:12:40.726Z,2.30
2023-04-27T08:15:11.434Z,2.80
2023-04-27T08:17:40.300Z,2.30
2023-04-27T08:20:09.147Z,2.42
2023-04-27T08:22:36.353Z,2.40
2023-04-27T08:25:04.759Z,2.70
2023-04-27T08:27:32.162Z,2.10
2023-04-27T08:30:00.331Z,2.42
2023-04-27T08:32:27.628Z,2.80
2023-04-27T08:34:56.758Z,2.72
2023-04-27T08:37:23.972Z,2.70
2023-04-27T08:39:51.611Z,2.70
2023-04-27T08:42:18.862Z,3.00
2023-04-27T08:44:46.663Z,3.22
2023-04-27T08:47:14.150Z,2.72
2023-04-27T08:49:41.880Z,2.72
2023-04-27T08:52:14.592Z,2.83
2023-04-27T08:54:42.581Z,3.20
2023-04-27T08:57:11.058Z,2.72
2023-04-27T08:59:39.196Z,2.95
2023-04-27T09:02:07.318Z,3.05
2023-04-27T09:04:38.636Z,3.42
2023-04-27T09:07:15.286Z,3.40
2023-04-27T09:09:43.551Z,3.63
2023-04-27T09:12:18.099Z,3.47
2023-04-27T09:14:56.918Z,3.35
2023-04-27T09:17:27.185Z,3.58
2023-04-27T09:20:07.026Z,3.28
2023-04-27T09:22:44.205Z,3.95
2023-04-27T09:25:22.884Z,3.20
2023-04-27T09:27:50.391Z,3.05
2023-04-27T09:30:18.833Z,3.13
2023-04-27T09:32:53.335Z,3.40
2023-04-27T09:35:23.719Z,3.95
2023-04-27T09:37:52.987Z,3.80
2023-04-27T09:40:22.083Z,3.60
2023-04-27T09:42:50.077Z,3.60
2023-04-27T09:45:18.438Z,3.53
2023-04-27T09:47:46.330Z,3.38
2023-04-27T09:50:14.799Z,3.92
2023-04-27T09:52:42.527Z,3.67
2023-04-27T09:55:16.298Z,3.13
2023-04-27T09:57:53.828Z,3.53
2023-04-27T10:00:35.175Z,4.10
2023-04-27T10:03:15.257Z,3.90
2023-04-27T10:06:17.954Z,3.97
2023-04-27T10:08:45.534Z,4.13
2023-04-27T10:11:18.079Z,3.42
2023-04-27T10:13:52.436Z,3.63
2023-04-27T10:16:22.490Z,5.05
2023-04-27T10:18:54.678Z,4.07
2023-04-27T10:21:23.081Z,3.67
2023-04-27T10:23:51.613Z,3.70
2023-04-27T10:26:25.923Z,3.70
2023-04-27T10:29:05.390Z,3.28
2023-04-27T10:31:33.471Z,3.35
2023-04-27T10:34:08.838Z,2.88
2023-04-27T10:36:37.592Z,3.35
2023-04-27T10:39:15.206Z,3.13
2023-04-27T10:44:18.372Z,3.03
2023-04-27T10:46:53.282Z,3.17
2023-04-27T10:49:21.413Z,3.08
2023-04-27T10:51:51.528Z,3.50
2023-04-27T10:54:19.064Z,3.67
2023-04-27T10:56:46.879Z,2.67
2023-04-27T10:59:15.736Z,3.10
2023-04-27T11:01:48.190Z,3.58
2023-04-27T11:06:44.838Z,3.13
2023-04-27T11:09:12.250Z,3.22
2023-04-27T11:11:44.526Z,3.10
2023-04-27T11:14:19.768Z,3.00
2023-04-27T11:16:47.900Z,4.40
2023-04-27T11:19:15.740Z,3.17
2023-04-27T11:21:44.333Z,3.33
2023-04-27T11:24:13.867Z,3.65
2023-04-27T11:26:42.973Z,3.20
2023-04-27T11:29:10.902Z,3.20
2023-04-27T11:31:41.802Z,3.20
2023-04-27T11:34:09.569Z,3.17
2023-04-27T11:36:37.516Z,3.30
2023-04-27T11:39:05.063Z,3.30
2023-04-27T11:41:36.832Z,5.03
2023-04-27T11:44:05.896Z,4.57
2023-04-27T11:46:34.763Z,3.55
2023-04-27T11:49:04.730Z,4.43
2023-04-27T11:51:33.498Z,4.00
2023-04-27T11:54:04.693Z,3.90
2023-04-27T11:56:36.284Z,4.13
2023-04-27T11:59:03.993Z,3.88
2023-04-27T12:01:38.030Z,3.83
2023-04-27T12:04:07.398Z,3.95
2023-04-27T12:06:35.482Z,3.08
2023-04-27T12:09:02.914Z,2.83
2023-04-27T12:11:30.786Z,3.08
2023-04-27T12:13:58.142Z,4.38
2023-04-27T12:16:25.960Z,2.72
2023-04-27T12:18:53.350Z,2.65
2023-04-27T12:21:22.634Z,2.80
2023-04-27T12:23:50.056Z,2.50
2023-04-27T12:26:18.040Z,2.42
2023-04-27T12:28:45.302Z,2.80
2023-04-27T12:31:15.748Z,2.40
2023-04-27T12:33:45.809Z,2.70
2023-04-27T12:36:13.562Z,2.63
2023-04-27T12:38:42.305Z,2.40
2023-04-27T12:41:10.034Z,2.50
2023-04-27T12:43:37.506Z,2.42
2023-04-27T12:46:05.308Z,2.30
2023-04-27T12:48:32.735Z,2.45
2023-04-27T12:51:00.433Z,2.97
2023-04-27T12:53:28.459Z,2.90
2023-04-27T12:55:57.633Z,2.53
2023-04-27T12:58:24.965Z,2.78
2023-04-27T13:00:52.634Z,2.67
2023-04-27T13:03:20.238Z,4.10
2023-04-27T13:05:48.092Z,3.28
2023-04-27T13:08:15.582Z,2.85
2023-04-27T13:10:43.390Z,3.30
2023-04-27T13:13:12.229Z,2.75
2023-04-27T13:15:39.933Z,3.13
2023-04-27T13:18:07.524Z,3.58
2023-04-27T13:20:35.342Z,3.53
2023-04-27T13:23:04.238Z,3.47
2023-04-27T13:25:31.948Z,3.88
2023-04-27T13:27:59.318Z,3.67
2023-04-27T13:30:28.784Z,4.63
2023-04-27T13:33:01.924Z,3.60
2023-04-27T13:35:38.475Z,4.53
2023-04-27T13:38:06.040Z,3.72
2023-04-27T13:40:34.195Z,3.88
2023-04-27T13:43:01.694Z,3.75
2023-04-27T13:45:30.789Z,3.58
2023-04-27T13:47:58.267Z,3.63
2023-04-27T13:50:26.080Z,3.65
2023-04-27T13:52:53.566Z,3.22
2023-04-27T13:55:21.437Z,3.30
2023-04-27T13:57:48.925Z,3.17
2023-04-27T14:00:17.236Z,3.65
2023-04-27T14:02:46.174Z,3.55
2023-04-27T14:05:13.934Z,2.85
2023-04-27T14:07:41.474Z,2.78
2023-04-27T14:10:09.830Z,3.20
2023-04-27T14:12:37.334Z,3.40
2023-04-27T14:15:05.869Z,3.70
2023-04-27T14:17:33.311Z,3.47
2023-04-27T14:20:02.677Z,3.53
2023-04-27T14:22:30.379Z,2.90
2023-04-27T14:24:58.277Z,2.80
2023-04-27T14:27:25.916Z,2.97
2023-04-27T14:29:53.678Z,3.05
2023-04-27T14:32:21.322Z,3.33
2023-04-27T14:34:49.272Z,3.15
2023-04-27T14:37:17.962Z,3.05
2023-04-27T14:39:46.284Z,3.05
2023-04-27T14:42:13.724Z,2.83
2023-04-27T14:44:41.531Z,2.55
2023-04-27T14:47:08.932Z,2.75
2023-04-27T14:49:36.661Z,3.25
2023-04-27T14:52:03.968Z,3.05
2023-04-27T14:54:33.266Z,3.08
2023-04-27T14:57:00.645Z,3.22
2023-04-27T14:59:28.699Z,3.13
2023-04-27T15:01:56.069Z,4.00
2023-04-27T15:04:24.146Z,3.83
2023-04-27T15:06:51.637Z,3.33
2023-04-27T15:09:19.557Z,2.92
2023-04-27T15:11:48.342Z,3.72
2023-04-27T15:14:16.235Z,3.38
2023-04-27T15:16:43.607Z,2.95
2023-04-27T15:19:11.674Z,2.88
2023-04-27T15:21:38.940Z,2.83
2023-04-27T15:24:06.859Z,3.42
2023-04-27T15:26:34.354Z,2.95
2023-04-27T15:29:04.204Z,3.47
2023-04-27T15:31:31.772Z,3.15
2023-04-27T15:33:59.436Z,3.33
2023-04-27T15:36:26.820Z,3.22
2023-04-27T15:38:54.837Z,3.00
2023-04-27T15:41:22.254Z,3.20
2023-04-27T15:43:51.438Z,3.63
2023-04-27T15:46:20.188Z,3.40
2023-04-27T15:48:48.036Z,2.83
2023-04-27T15:51:15.309Z,3.00
2023-04-27T15:53:43.037Z,3.35
2023-04-27T15:56:10.534Z,2.95
2023-04-27T15:58:38.178Z,2.88
2023-04-27T16:01:05.613Z,2.80
2023-04-27T16:03:35.023Z,2.95
2023-04-27T16:06:02.608Z,3.13
2023-04-27T16:08:30.376Z,2.83
2023-04-27T16:10:57.651Z,2.85
2023-04-27T16:13:25.502Z,3.20
2023-04-27T16:15:52.934Z,2.55
2023-04-27T16:18:20.577Z,2.97
2023-04-27T16:20:49.382Z,2.70
2023-04-27T16:23:17.185Z,2.72
2023-04-27T16:25:44.558Z,2.95
2023-04-27T16:28:12.322Z,3.63
2023-04-27T16:30:39.756Z,2.60
2023-04-27T16:33:07.594Z,2.90
2023-04-27T16:35:35.174Z,2.97
2023-04-27T16:38:04.298Z,2.60
2023-04-27T16:40:31.576Z,25.10
2023-04-27T16:42:59.340Z,3.47
2023-04-27T16:45:26.721Z,5.07
2023-04-27T16:47:54.423Z,3.00
2023-04-27T16:50:21.965Z,6.25
2023-04-27T16:52:49.862Z,6.07
2023-04-27T16:55:18.748Z,2.97
2023-04-27T16:57:46.483Z,2.78
2023-04-27T17:00:14.867Z,3.13
2023-04-27T17:02:43.965Z,3.30
2023-04-27T17:05:11.936Z,3.22
2023-04-27T17:07:39.722Z,3.08
2023-04-27T17:10:08.452Z,3.15
2023-04-27T17:12:38.113Z,2.50
2023-04-27T17:15:07.012Z,2.90
2023-04-27T17:17:35.306Z,2.90
2023-04-27T17:20:02.612Z,3.15
2023-04-27T17:22:30.299Z,2.83
2023-04-27T17:24:57.624Z,3.58
2023-04-27T17:27:25.339Z,3.03
2023-04-27T17:29:54.859Z,3.10
2023-04-27T17:32:22.697Z,2.78
2023-04-27T17:34:50.064Z,2.92
2023-04-27T17:37:17.683Z,3.08
2023-04-27T17:39:44.989Z,3.03
2023-04-27T17:42:12.857Z,3.08
2023-04-27T17:44:40.485Z,3.20
2023-04-27T17:47:09.806Z,3.25
2023-04-27T17:49:37.166Z,2.85
2023-04-27T17:52:05.436Z,3.38
2023-04-27T17:54:32.836Z,3.60
2023-04-27T17:57:00.545Z,3.55
2023-04-27T17:59:27.878Z,3.20
2023-04-27T18:01:55.768Z,3.30
2023-04-27T18:04:24.689Z,3.42
2023-04-27T18:06:52.551Z,3.33
2023-04-27T18:09:19.918Z,3.25
2023-04-27T18:11:47.834Z,2.85
2023-04-27T18:14:15.277Z,2.88
2023-04-27T18:16:42.993Z,3.00
2023-04-27T18:19:10.334Z,3.30
2023-04-27T18:21:39.440Z,3.38
2023-04-27T18:24:07.607Z,3.00
2023-04-27T18:26:35.554Z,3.97
2023-04-27T18:29:03.033Z,4.13
2023-04-27T18:31:30.754Z,4.00
2023-04-27T18:33:59.175Z,3.75
2023-04-27T18:36:26.903Z,3.22
2023-04-27T18:38:55.843Z,4.32
2023-04-27T18:41:23.569Z,3.80
2023-04-27T18:43:50.982Z,4.25
2023-04-27T18:46:18.771Z,3.83
2023-04-27T18:48:46.219Z,4.38
2023-04-27T18:51:13.924Z,4.78
2023-04-27T18:53:41.374Z,4.03
2023-04-27T18:56:10.697Z,3.15
2023-04-27T18:58:38.091Z,3.35
2023-04-27T19:01:06.001Z,3.25
2023-04-27T19:03:33.645Z,3.30
2023-04-27T19:06:01.646Z,3.92
2023-04-27T19:08:29.129Z,4.07
2023-04-27T19:10:58.456Z,3.45
2023-04-27T19:13:27.492Z,4.15
2023-04-27T19:15:55.138Z,4.32
2023-04-27T19:18:22.593Z,4.20
2023-04-27T19:20:50.517Z,4.80
2023-04-27T19:23:18.033Z,5.18
2023-04-27T19:25:45.923Z,4.93
2023-04-27T19:28:13.661Z,5.40
2023-04-27T19:30:42.976Z,5.40
2023-04-27T19:33:10.487Z,5.60
2023-04-27T19:35:38.257Z,6.15
2023-04-27T19:38:05.701Z,5.43
2023-04-27T19:40:33.434Z,5.07
2023-04-27T19:43:00.906Z,6.80
2023-04-27T19:45:28.674Z,5.78
2023-04-27T19:47:57.733Z,5.80
2023-04-27T19:50:25.560Z,8.43
2023-04-27T19:52:53.137Z,7.03
2023-04-27T19:55:21.081Z,5.72
2023-04-27T19:57:48.472Z,5.35
2023-04-27T20:00:16.725Z,5.40
2023-04-27T20:02:44.395Z,5.90
2023-04-27T20:05:14.000Z,6.40
2023-04-27T20:07:41.510Z,6.18
2023-04-27T20:10:09.397Z,5.82
2023-04-27T20:12:52.054Z,5.32
2023-04-27T20:15:23.951Z,5.63
2023-04-27T20:17:51.399Z,5.57
2023-04-27T20:20:20.749Z,5.13
2023-04-27T20:22:48.190Z,5.53
2023-04-27T20:25:15.984Z,5.68
2023-04-27T20:27:43.364Z,5.50
2023-04-27T20:30:11.883Z,5.43
2023-04-27T20:32:39.322Z,5.68
2023-04-27T20:35:07.662Z,5.55
2023-04-27T20:37:36.467Z,5.97
2023-04-27T20:40:04.792Z,5.45
2023-04-27T20:42:32.340Z,5.75
2023-04-27T20:45:00.232Z,5.95
2023-04-27T20:47:27.655Z,5.47
2023-04-27T20:49:55.351Z,5.20
2023-04-27T20:52:22.729Z,5.68
2023-04-27T20:54:51.859Z,5.70
2023-04-27T20:57:19.302Z,5.40
2023-04-27T20:59:47.118Z,6.00
2023-04-27T21:02:14.525Z,6.80
2023-04-27T21:04:42.557Z,7.57
2023-04-27T21:07:10.182Z,5.22
2023-04-27T21:09:37.940Z,5.13
2023-04-27T21:12:06.894Z,6.47
2023-04-27T21:14:34.729Z,6.80
2023-04-27T21:17:02.152Z,8.00
2023-04-27T21:19:29.840Z,6.50
2023-04-27T21:21:57.353Z,5.32
2023-04-27T21:24:25.212Z,5.22
2023-04-27T21:26:52.797Z,5.53
2023-04-27T21:29:21.989Z,6.18
2023-04-27T21:31:49.306Z,5.30
2023-04-27T21:34:17.245Z,5.38
2023-04-27T21:36:44.790Z,4.82
2023-04-27T21:39:12.623Z,4.63
2023-04-27T21:41:39.939Z,4.35
2023-04-27T21:44:07.560Z,4.57
2023-04-27T21:46:36.657Z,5.22
2023-04-27T21:49:04.538Z,4.47
2023-04-27T21:51:31.889Z,5.07
2023-04-27T21:53:59.643Z,4.68
2023-04-27T21:56:26.902Z,5.40
2023-04-27T21:58:54.773Z,5.30
2023-04-27T22:01:22.292Z,5.15
2023-04-27T22:03:51.537Z,4.95
2023-04-27T22:06:18.983Z,5.10
2023-04-27T22:08:46.871Z,5.75
2023-04-27T22:11:14.243Z,4.75
2023-04-27T22:13:42.039Z,5.25
2023-04-27T22:16:10.226Z,6.45
2023-04-27T22:18:39.446Z,7.60
2023-04-27T22:21:08.252Z,6.22
2023-04-27T22:23:36.374Z,6.35
2023-04-27T22:26:03.951Z,5.43
2023-04-27T22:28:31.676Z,5.60
2023-04-27T22:31:00.180Z,5.75
2023-04-27T22:33:28.020Z,6.20
2023-04-27T22:35:55.291Z,6.70
2023-04-27T22:38:24.597Z,5.60
2023-04-27T22:40:51.818Z,4.93
2023-04-27T22:43:19.573Z,6.05
2023-04-27T22:45:46.943Z,5.30
2023-04-27T22:48:14.660Z,6.13
2023-04-27T22:50:42.063Z,7.90
2023-04-27T22:53:09.715Z,6.00
2023-04-27T22:55:38.524Z,6.00
2023-04-27T22:58:06.341Z,5.97
2023-04-27T23:00:33.765Z,7.28
2023-04-27T23:03:01.664Z,7.90
2023-04-27T23:05:29.227Z,8.15
2023-04-27T23:07:56.886Z,7.75
2023-04-27T23:10:24.455Z,6.90
2023-04-27T23:12:53.527Z,6.63
2023-04-27T23:15:20.971Z,6.28
2023-04-27T23:17:48.733Z,7.32
2023-04-27T23:20:27.221Z,7.13
2023-04-27T23:22:55.712Z,7.50
2023-04-27T23:25:23.179Z,8.93
2023-04-27T23:27:52.530Z,8.95
2023-04-27T23:30:22.278Z,7.50
2023-04-27T23:32:50.044Z,6.72
2023-04-27T23:35:17.832Z,7.47
2023-04-27T23:37:45.553Z,7.15
2023-04-27T23:40:12.972Z,6.75
2023-04-27T23:42:40.698Z,8.15
2023-04-27T23:45:08.789Z,9.05
2023-04-27T23:47:37.918Z,8.82
2023-04-27T23:50:06.290Z,8.30
2023-04-27T23:52:33.988Z,9.23
2023-04-27T23:55:01.328Z,7.80
2023-04-27T23:57:29.045Z,7.78
2023-04-27T23:59:56.309Z,7.88
